Startpagina
METAR-TAF:

METAR-TAF

Vliegvelden :

Neuquén, Argentinië

breedte: 38-57S, lengte: 068-08W, hoogte: 270 m

Actueel weer

Dit bericht is 1 uur en het 8 minuten geleden gemaakt, om 08:00 UTC
Wind 4 kt uit het oostzuidoosten
Temperatuur 14°C
Vochtigheid 38%
Druk 1021 hPa
Zicht 10 km of meer
geen wolken onder 1500 m en geen cumulonimbus

METAR: SAZN 200800Z 11004KT CAVOK 14/00 Q1021

Tijdstip: 06:08 (09:08 UTC)

Verwachting

Dit bericht is 4 uur en het 8 minuten geleden gemaakt, om 05:00 UTC
Verwachting geldig van 20 om 06 UTC tot 21 om 06 UTC
Wind 5 kt uit variabele richting
Zicht 10 km of meer
geen wolken onder 1500 m en geen cumulonimbus
Wijzigt naar
van 20 om 12 UTC tot 20 om 15 UTC
Wind 10 kt uit het oostnoordoosten

TAF: SAZN 200500Z 2006/2106 VRB05KT CAVOK TX26/2020Z TN10/2010Z BECMG 2012/2015 07010KT

Waarnemingen en weersverwachtingen van meer dan 4000 vliegvelden (METAR en TAF).

De beschikbare stations zijn de gele en rode punten op de kaart.

Ga met uw muis naar het station om de naam te zien.

Klik dan om waarnemingen en weersverwachtingen te zien.

kaart wijzigen: klik op de groene knoppen met een zwart kruis om in te zoomen, op de groene knop met een streepje om uit te zoomen of op de groene pijlen voor aangrenzende kaarten.


METAR-TAF: